Pagrindinis puslapis
METAR-TAF:

METAR-TAF

Oro uostai :

Al Khardj, Saudo Arabija

platuma: 24-03-19N, ilguma: 047-33-49E, Aukštis: 503 m

Dabartinis oras

Ataskaita buvo paskelbta 1 valandą ir 2 minutes, ne 08:00 UTC
Vėjas 6 kt iš Šiaurės Rytų
Temperatūra 36°C
Drėgmė 8%
Slėgis 1013 hPa
Matomumas 10 km arba daugiau
nėra debesų žemiau 1500 m ir nėra kamuolinių lietaus debesų

METAR: OEKJ 020800Z 04006KT CAVOK 36/M03 Q1013

Laikas: 12:02 (09:02 UTC)

Prognozė

Ataskaita buvo paskelbta 10 valandos ir 2 minutes, ne 23:00 UTC
Prognozė galioja nuo 02 metu 00 UTC su 03 metu 06 UTC
Vėjas 3 kt nuo kintamojo kryptimis
Matomumas 10 km arba daugiau
nėra debesų žemiau 1500 m ir nėra kamuolinių lietaus debesų
Tapsmas
nuo 02 metu 06 UTC su 02 metu 08 UTC
Vėjas 12 kt iš Šiaurės Rytų
Tapsmas
nuo 02 metu 18 UTC su 02 metu 20 UTC
Vėjas 3 kt nuo kintamojo kryptimis

TAF: OEKJ 012300Z 0200/0306 VRB03KT CAVOK BECMG 0206/0208 04012KT BECMG 0218/0220 VRB03KT

Orai ataskaitas ir orų prognozės (METAR, TAF).

turimą stotys yra geltonos ir raudonos taškus žemėlapyje.

Perkelti pele per norėdami pamatyti stoties vardą.

Tada spustelėkite, norėdami matyti oro stebėjimo ir prognozės.

Norėdami pakeisti žemėlapį: spustelėkite ant žalios mygtukų su juodo kryžiaus žemyn,; žalią mygtuką su brūkšneliu, jei norite nutolinti; arba žalių rodyklių gretimoms žemėlapius.


METAR-TAF: